sensor_id;sensor_type;location;lat;lon;timestamp;temperature;humidity
16867;DHT22;8550;52.596;13.320;2023-06-14T00:03:37;14.10;99.90
16867;DHT22;8550;52.596;13.320;2023-06-14T00:08:40;14.00;99.90
16867;DHT22;8550;52.596;13.320;2023-06-14T00:13:42;14.10;99.90
16867;DHT22;8550;52.596;13.320;2023-06-14T00:18:44;14.00;99.90
16867;DHT22;8550;52.596;13.320;2023-06-14T00:23:48;13.90;99.90
16867;DHT22;8550;52.596;13.320;2023-06-14T00:28:50;13.80;99.90
16867;DHT22;8550;52.596;13.320;2023-06-14T00:33:52;13.80;99.90
16867;DHT22;8550;52.596;13.320;2023-06-14T00:38:55;13.80;99.90
16867;DHT22;8550;52.596;13.320;2023-06-14T00:43:57;13.70;99.90
16867;DHT22;8550;52.596;13.320;2023-06-14T00:49:01;13.70;99.90
16867;DHT22;8550;52.596;13.320;2023-06-14T00:54:04;13.50;99.90
16867;DHT22;8550;52.596;13.320;2023-06-14T00:59:06;13.40;99.90
16867;DHT22;8550;52.596;13.320;2023-06-14T01:04:08;13.30;99.90
16867;DHT22;8550;52.596;13.320;2023-06-14T01:09:18;13.40;99.90
16867;DHT22;8550;52.596;13.320;2023-06-14T01:14:22;13.50;99.90
16867;DHT22;8550;52.596;13.320;2023-06-14T01:19:26;13.30;99.90
16867;DHT22;8550;52.596;13.320;2023-06-14T01:24:30;13.20;99.90
16867;DHT22;8550;52.596;13.320;2023-06-14T01:29:35;13.20;99.90
16867;DHT22;8550;52.596;13.320;2023-06-14T01:34:37;13.10;99.90
16867;DHT22;8550;52.596;13.320;2023-06-14T01:39:41;13.10;99.90
16867;DHT22;8550;52.596;13.320;2023-06-14T01:44:45;12.90;99.90
16867;DHT22;8550;52.596;13.320;2023-06-14T01:49:48;12.90;99.90
16867;DHT22;8550;52.596;13.320;2023-06-14T01:54:51;12.80;99.90
16867;DHT22;8550;52.596;13.320;2023-06-14T01:59:53;12.70;99.90
16867;DHT22;8550;52.596;13.320;2023-06-14T02:04:55;12.60;99.90
16867;DHT22;8550;52.596;13.320;2023-06-14T02:09:59;12.50;99.90
16867;DHT22;8550;52.596;13.320;2023-06-14T02:15:01;12.50;99.90
16867;DHT22;8550;52.596;13.320;2023-06-14T02:20:05;12.40;99.90
16867;DHT22;8550;52.596;13.320;2023-06-14T02:25:09;12.20;99.90
16867;DHT22;8550;52.596;13.320;2023-06-14T02:30:12;12.20;99.90
16867;DHT22;8550;52.596;13.320;2023-06-14T02:35:14;12.20;99.90
16867;DHT22;8550;52.596;13.320;2023-06-14T02:40:17;12.00;99.90
16867;DHT22;8550;52.596;13.320;2023-06-14T02:45:19;12.00;99.90
16867;DHT22;8550;52.596;13.320;2023-06-14T02:50:22;12.00;99.90
16867;DHT22;8550;52.596;13.320;2023-06-14T02:55:25;11.90;99.90
16867;DHT22;8550;52.596;13.320;2023-06-14T03:00:28;12.00;99.90
16867;DHT22;8550;52.596;13.320;2023-06-14T03:05:31;12.10;99.90
16867;DHT22;8550;52.596;13.320;2023-06-14T03:10:34;12.10;99.90
16867;DHT22;8550;52.596;13.320;2023-06-14T03:15:36;12.20;99.90
16867;DHT22;8550;52.596;13.320;2023-06-14T03:20:39;12.10;99.90
16867;DHT22;8550;52.596;13.320;2023-06-14T03:25:42;12.00;99.90
16867;DHT22;8550;52.596;13.320;2023-06-14T03:31:04;12.10;99.90
16867;DHT22;8550;52.596;13.320;2023-06-14T03:36:07;12.10;99.90
16867;DHT22;8550;52.596;13.320;2023-06-14T03:41:10;12.20;99.90
16867;DHT22;8550;52.596;13.320;2023-06-14T03:51:45;12.30;99.90
16867;DHT22;8550;52.596;13.320;2023-06-14T03:57:10;12.30;99.90
16867;DHT22;8550;52.596;13.320;2023-06-14T04:02:20;12.50;99.90
16867;DHT22;8550;52.596;13.320;2023-06-14T04:07:23;12.70;99.90
16867;DHT22;8550;52.596;13.320;2023-06-14T04:12:27;12.80;99.90
16867;DHT22;8550;52.596;13.320;2023-06-14T04:17:30;12.90;99.90
16867;DHT22;8550;52.596;13.320;2023-06-14T04:22:51;13.00;99.90
16867;DHT22;8550;52.596;13.320;2023-06-14T04:28:04;13.20;99.90
16867;DHT22;8550;52.596;13.320;2023-06-14T04:33:23;13.40;99.90
16867;DHT22;8550;52.596;13.320;2023-06-14T04:38:26;13.50;99.90
16867;DHT22;8550;52.596;13.320;2023-06-14T04:43:31;13.70;99.90
16867;DHT22;8550;52.596;13.320;2023-06-14T04:48:39;13.90;99.90
16867;DHT22;8550;52.596;13.320;2023-06-14T04:53:41;14.10;99.90
16867;DHT22;8550;52.596;13.320;2023-06-14T04:58:45;14.30;99.90
16867;DHT22;8550;52.596;13.320;2023-06-14T05:03:47;14.20;99.90
16867;DHT22;8550;52.596;13.320;2023-06-14T05:08:50;14.40;99.90
16867;DHT22;8550;52.596;13.320;2023-06-14T05:13:53;14.40;99.90
16867;DHT22;8550;52.596;13.320;2023-06-14T05:18:56;14.60;99.90
16867;DHT22;8550;52.596;13.320;2023-06-14T05:23:58;14.60;99.90
16867;DHT22;8550;52.596;13.320;2023-06-14T05:29:02;14.50;99.90
16867;DHT22;8550;52.596;13.320;2023-06-14T05:34:04;14.60;99.90
16867;DHT22;8550;52.596;13.320;2023-06-14T05:39:06;15.00;99.90
16867;DHT22;8550;52.596;13.320;2023-06-14T05:44:11;15.40;99.90
16867;DHT22;8550;52.596;13.320;2023-06-14T05:49:13;15.60;99.90
16867;DHT22;8550;52.596;13.320;2023-06-14T05:54:15;15.70;99.90
16867;DHT22;8550;52.596;13.320;2023-06-14T05:59:18;15.90;99.90
16867;DHT22;8550;52.596;13.320;2023-06-14T06:04:20;16.30;99.90
16867;DHT22;8550;52.596;13.320;2023-06-14T06:09:22;16.70;99.90
16867;DHT22;8550;52.596;13.320;2023-06-14T06:14:25;16.80;99.90
16867;DHT22;8550;52.596;13.320;2023-06-14T06:19:28;16.90;99.90
16867;DHT22;8550;52.596;13.320;2023-06-14T06:24:29;16.50;99.90
16867;DHT22;8550;52.596;13.320;2023-06-14T06:29:33;16.40;99.90
16867;DHT22;8550;52.596;13.320;2023-06-14T06:34:35;16.40;99.90
16867;DHT22;8550;52.596;13.320;2023-06-14T06:39:37;16.40;99.90
16867;DHT22;8550;52.596;13.320;2023-06-14T06:44:41;16.60;99.90
16867;DHT22;8550;52.596;13.320;2023-06-14T06:49:43;16.90;99.90
16867;DHT22;8550;52.596;13.320;2023-06-14T06:54:45;17.00;99.90
16867;DHT22;8550;52.596;13.320;2023-06-14T06:59:48;17.30;99.90
16867;DHT22;8550;52.596;13.320;2023-06-14T07:04:51;17.70;99.90
16867;DHT22;8550;52.596;13.320;2023-06-14T07:09:53;18.00;99.90
16867;DHT22;8550;52.596;13.320;2023-06-14T07:14:56;18.20;99.90
16867;DHT22;8550;52.596;13.320;2023-06-14T07:19:58;18.30;99.90
16867;DHT22;8550;52.596;13.320;2023-06-14T07:25:01;18.40;99.90
16867;DHT22;8550;52.596;13.320;2023-06-14T07:30:06;18.60;99.90
16867;DHT22;8550;52.596;13.320;2023-06-14T07:35:08;18.80;99.90
16867;DHT22;8550;52.596;13.320;2023-06-14T07:40:11;18.90;99.90
16867;DHT22;8550;52.596;13.320;2023-06-14T07:45:15;18.80;99.90
16867;DHT22;8550;52.596;13.320;2023-06-14T07:50:16;18.80;99.90
16867;DHT22;8550;52.596;13.320;2023-06-14T07:55:18;19.20;99.90
16867;DHT22;8550;52.596;13.320;2023-06-14T08:00:22;19.40;99.90
16867;DHT22;8550;52.596;13.320;2023-06-14T08:05:24;19.20;99.90
16867;DHT22;8550;52.596;13.320;2023-06-14T08:10:26;19.70;99.90
16867;DHT22;8550;52.596;13.320;2023-06-14T08:15:30;20.10;99.90
16867;DHT22;8550;52.596;13.320;2023-06-14T08:20:31;20.60;99.80
16867;DHT22;8550;52.596;13.320;2023-06-14T08:25:35;20.60;99.90
16867;DHT22;8550;52.596;13.320;2023-06-14T08:30:38;20.90;99.70
16867;DHT22;8550;52.596;13.320;2023-06-14T08:35:40;21.20;98.40
16867;DHT22;8550;52.596;13.320;2023-06-14T08:40:42;21.70;97.40
16867;DHT22;8550;52.596;13.320;2023-06-14T08:45:46;21.40;95.70
16867;DHT22;8550;52.596;13.320;2023-06-14T08:50:51;21.40;96.40
16867;DHT22;8550;52.596;13.320;2023-06-14T08:55:54;20.60;96.60
16867;DHT22;8550;52.596;13.320;2023-06-14T09:00:58;20.50;96.60
16867;DHT22;8550;52.596;13.320;2023-06-14T09:06:01;20.90;96.00
16867;DHT22;8550;52.596;13.320;2023-06-14T09:11:05;21.30;94.90
16867;DHT22;8550;52.596;13.320;2023-06-14T09:16:09;21.80;95.00
16867;DHT22;8550;52.596;13.320;2023-06-14T09:21:11;21.60;93.40
16867;DHT22;8550;52.596;13.320;2023-06-14T09:26:15;21.50;94.40
16867;DHT22;8550;52.596;13.320;2023-06-14T09:31:19;21.80;93.40
16867;DHT22;8550;52.596;13.320;2023-06-14T09:36:22;22.30;92.20
16867;DHT22;8550;52.596;13.320;2023-06-14T09:41:31;22.70;91.70
16867;DHT22;8550;52.596;13.320;2023-06-14T09:46:35;23.10;91.40
16867;DHT22;8550;52.596;13.320;2023-06-14T09:51:45;23.40;90.50
16867;DHT22;8550;52.596;13.320;2023-06-14T09:56:47;23.70;87.90
16867;DHT22;8550;52.596;13.320;2023-06-14T10:01:58;23.90;88.20
16867;DHT22;8550;52.596;13.320;2023-06-14T10:07:04;23.90;82.80
16867;DHT22;8550;52.596;13.320;2023-06-14T10:12:07;23.80;84.80
16867;DHT22;8550;52.596;13.320;2023-06-14T10:17:19;23.50;82.80
16867;DHT22;8550;52.596;13.320;2023-06-14T10:22:25;23.20;85.20
16867;DHT22;8550;52.596;13.320;2023-06-14T10:27:29;23.10;86.50
16867;DHT22;8550;52.596;13.320;2023-06-14T10:32:33;23.00;83.70
16867;DHT22;8550;52.596;13.320;2023-06-14T10:37:35;23.50;82.90
16867;DHT22;8550;52.596;13.320;2023-06-14T10:42:37;23.10;79.60
16867;DHT22;8550;52.596;13.320;2023-06-14T10:47:40;23.20;82.10
16867;DHT22;8550;52.596;13.320;2023-06-14T10:52:43;24.40;79.20
16867;DHT22;8550;52.596;13.320;2023-06-14T10:57:47;25.90;75.20
16867;DHT22;8550;52.596;13.320;2023-06-14T11:08:40;24.70;68.30
16867;DHT22;8550;52.596;13.320;2023-06-14T11:13:46;24.50;67.80
16867;DHT22;8550;52.596;13.320;2023-06-14T11:18:49;26.30;65.30
16867;DHT22;8550;52.596;13.320;2023-06-14T11:23:52;28.00;58.60
16867;DHT22;8550;52.596;13.320;2023-06-14T11:28:56;27.90;57.30
16867;DHT22;8550;52.596;13.320;2023-06-14T11:34:00;26.00;57.40
16867;DHT22;8550;52.596;13.320;2023-06-14T11:39:03;26.70;61.10
16867;DHT22;8550;52.596;13.320;2023-06-14T11:44:06;27.10;58.20
16867;DHT22;8550;52.596;13.320;2023-06-14T11:49:10;27.90;56.60
16867;DHT22;8550;52.596;13.320;2023-06-14T11:54:12;28.80;55.60
16867;DHT22;8550;52.596;13.320;2023-06-14T11:59:14;27.80;52.90
16867;DHT22;8550;52.596;13.320;2023-06-14T12:04:26;26.50;55.30
16867;DHT22;8550;52.596;13.320;2023-06-14T12:09:28;27.70;54.40
16867;DHT22;8550;52.596;13.320;2023-06-14T12:14:30;28.70;50.80
16867;DHT22;8550;52.596;13.320;2023-06-14T12:19:41;28.70;52.60
16867;DHT22;8550;52.596;13.320;2023-06-14T12:24:44;29.60;50.10
16867;DHT22;8550;52.596;13.320;2023-06-14T12:29:46;31.30;46.30
16867;DHT22;8550;52.596;13.320;2023-06-14T12:35:01;34.10;43.50
16867;DHT22;8550;52.596;13.320;2023-06-14T12:40:04;34.10;38.30
16867;DHT22;8550;52.596;13.320;2023-06-14T12:45:09;35.40;37.10
16867;DHT22;8550;52.596;13.320;2023-06-14T12:50:12;35.30;37.70
16867;DHT22;8550;52.596;13.320;2023-06-14T12:55:14;34.30;39.40
16867;DHT22;8550;52.596;13.320;2023-06-14T13:00:17;32.30;38.30
16867;DHT22;8550;52.596;13.320;2023-06-14T13:05:20;31.80;41.00
16867;DHT22;8550;52.596;13.320;2023-06-14T13:10:22;30.00;39.70
16867;DHT22;8550;52.596;13.320;2023-06-14T13:15:24;30.10;40.10
16867;DHT22;8550;52.596;13.320;2023-06-14T13:20:27;31.50;38.80
16867;DHT22;8550;52.596;13.320;2023-06-14T13:25:29;32.70;38.50
16867;DHT22;8550;52.596;13.320;2023-06-14T13:30:31;34.00;38.10
16867;DHT22;8550;52.596;13.320;2023-06-14T13:35:35;35.70;35.30
16867;DHT22;8550;52.596;13.320;2023-06-14T13:40:36;31.70;37.00
16867;DHT22;8550;52.596;13.320;2023-06-14T13:45:38;30.80;38.40
16867;DHT22;8550;52.596;13.320;2023-06-14T13:50:42;30.20;41.30
16867;DHT22;8550;52.596;13.320;2023-06-14T13:55:44;31.70;38.40
16867;DHT22;8550;52.596;13.320;2023-06-14T14:00:46;29.30;41.20
16867;DHT22;8550;52.596;13.320;2023-06-14T14:05:49;28.00;43.20
16867;DHT22;8550;52.596;13.320;2023-06-14T14:10:51;25.30;48.30
16867;DHT22;8550;52.596;13.320;2023-06-14T14:15:53;24.00;51.90
16867;DHT22;8550;52.596;13.320;2023-06-14T14:20:57;23.70;53.10
16867;DHT22;8550;52.596;13.320;2023-06-14T14:26:19;23.40;54.60
16867;DHT22;8550;52.596;13.320;2023-06-14T14:31:21;23.40;55.20
16867;DHT22;8550;52.596;13.320;2023-06-14T14:36:24;23.40;55.20
16867;DHT22;8550;52.596;13.320;2023-06-14T14:41:27;23.30;55.30
16867;DHT22;8550;52.596;13.320;2023-06-14T14:46:29;23.40;56.00
16867;DHT22;8550;52.596;13.320;2023-06-14T14:51:32;23.20;55.60
16867;DHT22;8550;52.596;13.320;2023-06-14T14:56:35;23.40;56.30
16867;DHT22;8550;52.596;13.320;2023-06-14T15:01:38;23.40;55.90
16867;DHT22;8550;52.596;13.320;2023-06-14T15:06:42;23.10;56.50
16867;DHT22;8550;52.596;13.320;2023-06-14T15:11:44;22.90;56.70
16867;DHT22;8550;52.596;13.320;2023-06-14T15:16:46;22.80;57.40
16867;DHT22;8550;52.596;13.320;2023-06-14T15:21:49;22.60;57.30
16867;DHT22;8550;52.596;13.320;2023-06-14T15:26:51;22.60;58.20
16867;DHT22;8550;52.596;13.320;2023-06-14T15:31:53;22.70;57.90
16867;DHT22;8550;52.596;13.320;2023-06-14T15:36:56;22.70;57.60
16867;DHT22;8550;52.596;13.320;2023-06-14T15:41:59;22.60;57.70
16867;DHT22;8550;52.596;13.320;2023-06-14T15:47:01;22.60;57.50
16867;DHT22;8550;52.596;13.320;2023-06-14T15:52:05;22.70;56.90
16867;DHT22;8550;52.596;13.320;2023-06-14T15:57:07;23.00;56.70
16867;DHT22;8550;52.596;13.320;2023-06-14T16:02:10;23.20;56.20
16867;DHT22;8550;52.596;13.320;2023-06-14T16:07:13;23.70;56.00
16867;DHT22;8550;52.596;13.320;2023-06-14T16:12:17;24.20;55.20
16867;DHT22;8550;52.596;13.320;2023-06-14T16:17:21;24.50;53.90
16867;DHT22;8550;52.596;13.320;2023-06-14T16:22:25;24.10;53.90
16867;DHT22;8550;52.596;13.320;2023-06-14T16:27:27;23.90;54.50
16867;DHT22;8550;52.596;13.320;2023-06-14T16:32:29;23.80;55.30
16867;DHT22;8550;52.596;13.320;2023-06-14T16:37:32;23.40;55.80
16867;DHT22;8550;52.596;13.320;2023-06-14T16:42:34;23.10;56.90
16867;DHT22;8550;52.596;13.320;2023-06-14T16:47:36;23.10;58.20
16867;DHT22;8550;52.596;13.320;2023-06-14T16:52:39;23.10;59.20
16867;DHT22;8550;52.596;13.320;2023-06-14T16:57:41;22.80;58.70
16867;DHT22;8550;52.596;13.320;2023-06-14T17:02:43;22.70;60.30
16867;DHT22;8550;52.596;13.320;2023-06-14T17:07:47;22.60;60.50
16867;DHT22;8550;52.596;13.320;2023-06-14T17:12:49;22.30;61.00
16867;DHT22;8550;52.596;13.320;2023-06-14T17:17:51;22.10;61.60
16867;DHT22;8550;52.596;13.320;2023-06-14T17:22:54;22.10;62.10
16867;DHT22;8550;52.596;13.320;2023-06-14T17:27:57;21.90;62.00
16867;DHT22;8550;52.596;13.320;2023-06-14T17:32:59;21.90;62.30
16867;DHT22;8550;52.596;13.320;2023-06-14T17:38:02;21.70;62.20
16867;DHT22;8550;52.596;13.320;2023-06-14T17:43:04;21.60;62.70
16867;DHT22;8550;52.596;13.320;2023-06-14T17:48:06;21.60;63.30
16867;DHT22;8550;52.596;13.320;2023-06-14T17:53:09;21.50;63.20
16867;DHT22;8550;52.596;13.320;2023-06-14T17:58:11;21.40;63.60
16867;DHT22;8550;52.596;13.320;2023-06-14T18:03:13;21.30;64.10
16867;DHT22;8550;52.596;13.320;2023-06-14T18:08:17;21.20;65.20
16867;DHT22;8550;52.596;13.320;2023-06-14T18:13:19;21.20;65.30
16867;DHT22;8550;52.596;13.320;2023-06-14T18:18:21;21.20;65.30
16867;DHT22;8550;52.596;13.320;2023-06-14T18:23:24;21.10;65.80
16867;DHT22;8550;52.596;13.320;2023-06-14T18:28:27;21.10;65.70
16867;DHT22;8550;52.596;13.320;2023-06-14T18:33:29;21.10;65.80
16867;DHT22;8550;52.596;13.320;2023-06-14T18:38:32;21.10;66.70
16867;DHT22;8550;52.596;13.320;2023-06-14T18:43:35;21.00;67.20
16867;DHT22;8550;52.596;13.320;2023-06-14T18:48:38;20.90;67.00
16867;DHT22;8550;52.596;13.320;2023-06-14T18:53:42;20.90;67.30
16867;DHT22;8550;52.596;13.320;2023-06-14T18:58:44;20.80;67.80
16867;DHT22;8550;52.596;13.320;2023-06-14T19:03:46;20.80;68.60
16867;DHT22;8550;52.596;13.320;2023-06-14T19:08:49;20.80;69.40
16867;DHT22;8550;52.596;13.320;2023-06-14T19:13:51;20.70;70.00
16867;DHT22;8550;52.596;13.320;2023-06-14T19:18:53;20.60;72.10
16867;DHT22;8550;52.596;13.320;2023-06-14T19:23:56;20.60;71.70
16867;DHT22;8550;52.596;13.320;2023-06-14T19:28:58;20.50;71.70
16867;DHT22;8550;52.596;13.320;2023-06-14T19:34:00;20.50;73.40
16867;DHT22;8550;52.596;13.320;2023-06-14T19:39:04;20.30;72.90
16867;DHT22;8550;52.596;13.320;2023-06-14T19:44:06;20.30;73.40
16867;DHT22;8550;52.596;13.320;2023-06-14T19:49:08;20.20;72.60
16867;DHT22;8550;52.596;13.320;2023-06-14T19:54:12;20.10;75.70
16867;DHT22;8550;52.596;13.320;2023-06-14T19:59:14;20.00;75.20
16867;DHT22;8550;52.596;13.320;2023-06-14T20:04:16;20.00;75.00
16867;DHT22;8550;52.596;13.320;2023-06-14T20:09:19;19.90;75.40
16867;DHT22;8550;52.596;13.320;2023-06-14T20:14:21;19.90;75.40
16867;DHT22;8550;52.596;13.320;2023-06-14T20:19:25;19.90;75.30
16867;DHT22;8550;52.596;13.320;2023-06-14T20:24:29;19.90;76.20
16867;DHT22;8550;52.596;13.320;2023-06-14T20:29:31;19.80;77.60
16867;DHT22;8550;52.596;13.320;2023-06-14T20:34:35;19.70;77.80
16867;DHT22;8550;52.596;13.320;2023-06-14T20:39:38;19.70;78.70
16867;DHT22;8550;52.596;13.320;2023-06-14T20:44:40;19.70;78.60
16867;DHT22;8550;52.596;13.320;2023-06-14T20:49:42;19.60;79.50
16867;DHT22;8550;52.596;13.320;2023-06-14T20:54:46;19.50;81.00
16867;DHT22;8550;52.596;13.320;2023-06-14T20:59:48;19.40;81.70
16867;DHT22;8550;52.596;13.320;2023-06-14T21:04:50;19.30;82.10
16867;DHT22;8550;52.596;13.320;2023-06-14T21:09:54;19.30;82.40
16867;DHT22;8550;52.596;13.320;2023-06-14T21:14:56;19.20;83.40
16867;DHT22;8550;52.596;13.320;2023-06-14T21:19:58;19.20;83.80
16867;DHT22;8550;52.596;13.320;2023-06-14T21:25:01;19.10;84.30
16867;DHT22;8550;52.596;13.320;2023-06-14T21:30:04;19.00;85.10
16867;DHT22;8550;52.596;13.320;2023-06-14T21:35:07;19.00;87.30
16867;DHT22;8550;52.596;13.320;2023-06-14T21:40:11;18.90;85.50
16867;DHT22;8550;52.596;13.320;2023-06-14T21:45:15;18.90;86.00
16867;DHT22;8550;52.596;13.320;2023-06-14T21:50:17;18.80;85.20
16867;DHT22;8550;52.596;13.320;2023-06-14T21:55:20;18.60;86.40
16867;DHT22;8550;52.596;13.320;2023-06-14T22:00:23;18.50;87.00
16867;DHT22;8550;52.596;13.320;2023-06-14T22:05:25;18.40;88.10
16867;DHT22;8550;52.596;13.320;2023-06-14T22:10:29;18.30;89.00
16867;DHT22;8550;52.596;13.320;2023-06-14T22:15:32;18.30;88.90
16867;DHT22;8550;52.596;13.320;2023-06-14T22:20:35;18.20;90.00
16867;DHT22;8550;52.596;13.320;2023-06-14T22:25:39;18.10;90.10
16867;DHT22;8550;52.596;13.320;2023-06-14T22:30:41;18.00;90.90
16867;DHT22;8550;52.596;13.320;2023-06-14T22:35:45;17.90;91.40
16867;DHT22;8550;52.596;13.320;2023-06-14T22:40:48;17.80;91.50
16867;DHT22;8550;52.596;13.320;2023-06-14T22:45:50;17.60;92.70
16867;DHT22;8550;52.596;13.320;2023-06-14T22:50:55;17.50;93.10
16867;DHT22;8550;52.596;13.320;2023-06-14T22:55:59;17.40;93.80
16867;DHT22;8550;52.596;13.320;2023-06-14T23:01:01;17.30;94.90
16867;DHT22;8550;52.596;13.320;2023-06-14T23:06:03;17.20;96.10
16867;DHT22;8550;52.596;13.320;2023-06-14T23:11:09;17.10;96.20
16867;DHT22;8550;52.596;13.320;2023-06-14T23:16:12;17.00;96.90
16867;DHT22;8550;52.596;13.320;2023-06-14T23:21:14;16.90;97.50
16867;DHT22;8550;52.596;13.320;2023-06-14T23:26:19;16.80;98.30
16867;DHT22;8550;52.596;13.320;2023-06-14T23:31:25;16.70;99.10
16867;DHT22;8550;52.596;13.320;2023-06-14T23:36:26;16.60;99.90
16867;DHT22;8550;52.596;13.320;2023-06-14T23:41:33;16.50;99.90
16867;DHT22;8550;52.596;13.320;2023-06-14T23:46:35;16.30;99.90
16867;DHT22;8550;52.596;13.320;2023-06-14T23:51:37;16.20;99.90
16867;DHT22;8550;52.596;13.320;2023-06-14T23:56:43;16.20;99.90
